sensor_id;sensor_type;location;lat;lon;timestamp;temperature;humidity
28548;DHT22;68292;49.600;8.746;2023-06-26T00:00:00;26.40;47.10
28548;DHT22;68292;49.600;8.746;2023-06-26T00:02:31;26.30;47.00
28548;DHT22;68292;49.600;8.746;2023-06-26T00:05:00;26.30;47.00
28548;DHT22;68292;49.600;8.746;2023-06-26T00:07:30;26.30;47.00
28548;DHT22;68292;49.600;8.746;2023-06-26T00:10:02;26.30;47.10
28548;DHT22;68292;49.600;8.746;2023-06-26T00:12:31;26.30;47.30
28548;DHT22;68292;49.600;8.746;2023-06-26T00:15:00;26.30;47.30
28548;DHT22;68292;49.600;8.746;2023-06-26T00:17:28;26.30;47.30
28548;DHT22;68292;49.600;8.746;2023-06-26T00:19:56;26.30;47.40
28548;DHT22;68292;49.600;8.746;2023-06-26T00:22:24;26.30;47.40
28548;DHT22;68292;49.600;8.746;2023-06-26T00:24:52;26.20;47.20
28548;DHT22;68292;49.600;8.746;2023-06-26T00:27:22;26.20;47.40
28548;DHT22;68292;49.600;8.746;2023-06-26T00:29:50;26.20;47.50
28548;DHT22;68292;49.600;8.746;2023-06-26T00:32:19;26.20;47.40
28548;DHT22;68292;49.600;8.746;2023-06-26T00:34:48;26.20;47.40
28548;DHT22;68292;49.600;8.746;2023-06-26T00:37:16;26.20;47.40
28548;DHT22;68292;49.600;8.746;2023-06-26T00:39:44;26.10;47.40
28548;DHT22;68292;49.600;8.746;2023-06-26T00:42:12;26.10;47.50
28548;DHT22;68292;49.600;8.746;2023-06-26T00:44:42;26.10;47.50
28548;DHT22;68292;49.600;8.746;2023-06-26T00:47:14;26.10;47.50
28548;DHT22;68292;49.600;8.746;2023-06-26T00:49:44;26.10;48.20
28548;DHT22;68292;49.600;8.746;2023-06-26T00:52:13;26.10;47.50
28548;DHT22;68292;49.600;8.746;2023-06-26T00:54:41;26.10;47.50
28548;DHT22;68292;49.600;8.746;2023-06-26T00:57:09;26.00;47.50
28548;DHT22;68292;49.600;8.746;2023-06-26T00:59:37;26.00;47.50
28548;DHT22;68292;49.600;8.746;2023-06-26T01:02:07;26.00;47.50
28548;DHT22;68292;49.600;8.746;2023-06-26T01:04:36;26.00;47.50
28548;DHT22;68292;49.600;8.746;2023-06-26T01:07:05;26.00;47.50
28548;DHT22;68292;49.600;8.746;2023-06-26T01:09:34;26.00;47.50
28548;DHT22;68292;49.600;8.746;2023-06-26T01:12:03;26.00;47.60
28548;DHT22;68292;49.600;8.746;2023-06-26T01:14:31;26.00;47.70
28548;DHT22;68292;49.600;8.746;2023-06-26T01:17:02;26.00;47.70
28548;DHT22;68292;49.600;8.746;2023-06-26T01:19:32;25.90;47.60
28548;DHT22;68292;49.600;8.746;2023-06-26T01:22:07;25.90;47.60
28548;DHT22;68292;49.600;8.746;2023-06-26T01:24:47;25.90;47.70
28548;DHT22;68292;49.600;8.746;2023-06-26T01:27:24;25.90;47.70
28548;DHT22;68292;49.600;8.746;2023-06-26T01:29:53;25.90;47.70
28548;DHT22;68292;49.600;8.746;2023-06-26T01:32:22;25.90;47.60
28548;DHT22;68292;49.600;8.746;2023-06-26T01:34:53;25.80;47.50
28548;DHT22;68292;49.600;8.746;2023-06-26T01:37:21;25.80;47.50
28548;DHT22;68292;49.600;8.746;2023-06-26T01:39:49;25.80;47.60
28548;DHT22;68292;49.600;8.746;2023-06-26T01:42:18;25.80;47.50
28548;DHT22;68292;49.600;8.746;2023-06-26T01:44:47;25.80;47.60
28548;DHT22;68292;49.600;8.746;2023-06-26T01:47:21;25.80;47.70
28548;DHT22;68292;49.600;8.746;2023-06-26T01:49:53;25.80;47.80
28548;DHT22;68292;49.600;8.746;2023-06-26T01:52:28;25.80;47.80
28548;DHT22;68292;49.600;8.746;2023-06-26T01:55:05;25.80;47.80
28548;DHT22;68292;49.600;8.746;2023-06-26T01:57:38;25.70;47.90
28548;DHT22;68292;49.600;8.746;2023-06-26T02:00:10;25.70;47.80
28548;DHT22;68292;49.600;8.746;2023-06-26T02:02:40;25.70;47.90
28548;DHT22;68292;49.600;8.746;2023-06-26T02:05:12;25.70;47.90
28548;DHT22;68292;49.600;8.746;2023-06-26T02:07:41;25.70;47.90
28548;DHT22;68292;49.600;8.746;2023-06-26T02:10:10;25.70;47.90
28548;DHT22;68292;49.600;8.746;2023-06-26T02:12:39;25.60;47.90
28548;DHT22;68292;49.600;8.746;2023-06-26T02:15:09;25.60;47.90
28548;DHT22;68292;49.600;8.746;2023-06-26T02:17:39;25.60;47.90
28548;DHT22;68292;49.600;8.746;2023-06-26T02:20:07;25.60;47.90
28548;DHT22;68292;49.600;8.746;2023-06-26T02:22:37;25.60;47.90
28548;DHT22;68292;49.600;8.746;2023-06-26T02:25:09;25.50;47.90
28548;DHT22;68292;49.600;8.746;2023-06-26T02:27:39;25.60;48.00
28548;DHT22;68292;49.600;8.746;2023-06-26T02:30:09;25.50;47.90
28548;DHT22;68292;49.600;8.746;2023-06-26T02:32:38;25.50;48.00
28548;DHT22;68292;49.600;8.746;2023-06-26T02:35:07;25.50;47.90
28548;DHT22;68292;49.600;8.746;2023-06-26T02:37:41;25.50;48.00
28548;DHT22;68292;49.600;8.746;2023-06-26T02:40:10;25.50;48.10
28548;DHT22;68292;49.600;8.746;2023-06-26T02:42:40;25.50;48.00
28548;DHT22;68292;49.600;8.746;2023-06-26T02:45:10;25.50;48.10
28548;DHT22;68292;49.600;8.746;2023-06-26T02:47:39;25.50;48.20
28548;DHT22;68292;49.600;8.746;2023-06-26T02:50:09;25.50;48.10
28548;DHT22;68292;49.600;8.746;2023-06-26T02:53:00;25.50;48.10
28548;DHT22;68292;49.600;8.746;2023-06-26T02:55:28;25.50;48.10
28548;DHT22;68292;49.600;8.746;2023-06-26T02:57:57;25.40;48.00
28548;DHT22;68292;49.600;8.746;2023-06-26T03:00:26;25.40;48.10
28548;DHT22;68292;49.600;8.746;2023-06-26T03:02:58;25.40;48.10
28548;DHT22;68292;49.600;8.746;2023-06-26T03:05:26;25.40;48.10
28548;DHT22;68292;49.600;8.746;2023-06-26T03:07:55;25.40;48.20
28548;DHT22;68292;49.600;8.746;2023-06-26T03:10:23;25.40;48.10
28548;DHT22;68292;49.600;8.746;2023-06-26T03:12:52;25.40;48.20
28548;DHT22;68292;49.600;8.746;2023-06-26T03:15:20;25.30;48.20
28548;DHT22;68292;49.600;8.746;2023-06-26T03:17:50;25.40;48.20
28548;DHT22;68292;49.600;8.746;2023-06-26T03:20:23;25.40;48.30
28548;DHT22;68292;49.600;8.746;2023-06-26T03:22:56;25.40;48.20
28548;DHT22;68292;49.600;8.746;2023-06-26T03:25:24;25.40;48.30
28548;DHT22;68292;49.600;8.746;2023-06-26T03:28:20;25.30;48.20
28548;DHT22;68292;49.600;8.746;2023-06-26T03:30:48;25.30;48.10
28548;DHT22;68292;49.600;8.746;2023-06-26T03:33:19;25.30;48.10
28548;DHT22;68292;49.600;8.746;2023-06-26T03:35:47;25.30;48.20
28548;DHT22;68292;49.600;8.746;2023-06-26T03:38:15;25.30;48.20
28548;DHT22;68292;49.600;8.746;2023-06-26T03:40:44;25.30;48.20
28548;DHT22;68292;49.600;8.746;2023-06-26T03:43:13;25.30;48.30
28548;DHT22;68292;49.600;8.746;2023-06-26T03:46:04;25.20;48.30
28548;DHT22;68292;49.600;8.746;2023-06-26T03:48:33;25.20;48.40
28548;DHT22;68292;49.600;8.746;2023-06-26T03:51:02;25.20;48.40
28548;DHT22;68292;49.600;8.746;2023-06-26T03:53:30;25.20;48.40
28548;DHT22;68292;49.600;8.746;2023-06-26T03:55:58;25.20;48.40
28548;DHT22;68292;49.600;8.746;2023-06-26T03:58:26;25.20;48.50
28548;DHT22;68292;49.600;8.746;2023-06-26T04:00:54;25.20;48.40
28548;DHT22;68292;49.600;8.746;2023-06-26T04:03:24;25.20;48.40
28548;DHT22;68292;49.600;8.746;2023-06-26T04:05:54;25.20;48.40
28548;DHT22;68292;49.600;8.746;2023-06-26T04:08:23;25.20;48.50
28548;DHT22;68292;49.600;8.746;2023-06-26T04:10:53;25.20;48.60
28548;DHT22;68292;49.600;8.746;2023-06-26T04:13:24;25.20;48.60
28548;DHT22;68292;49.600;8.746;2023-06-26T04:15:52;25.20;48.60
28548;DHT22;68292;49.600;8.746;2023-06-26T04:18:20;25.20;48.60
28548;DHT22;68292;49.600;8.746;2023-06-26T04:21:07;25.20;48.50
28548;DHT22;68292;49.600;8.746;2023-06-26T04:23:36;25.10;48.60
28548;DHT22;68292;49.600;8.746;2023-06-26T04:26:04;25.20;48.70
28548;DHT22;68292;49.600;8.746;2023-06-26T04:28:33;25.10;48.70
28548;DHT22;68292;49.600;8.746;2023-06-26T04:31:02;25.10;48.80
28548;DHT22;68292;49.600;8.746;2023-06-26T04:33:31;25.10;48.80
28548;DHT22;68292;49.600;8.746;2023-06-26T04:35:59;25.10;48.90
28548;DHT22;68292;49.600;8.746;2023-06-26T04:38:31;25.10;48.80
28548;DHT22;68292;49.600;8.746;2023-06-26T04:41:00;25.10;48.90
28548;DHT22;68292;49.600;8.746;2023-06-26T04:43:28;25.10;48.90
28548;DHT22;68292;49.600;8.746;2023-06-26T04:45:56;25.10;49.00
28548;DHT22;68292;49.600;8.746;2023-06-26T04:48:25;25.10;49.00
28548;DHT22;68292;49.600;8.746;2023-06-26T04:50:54;25.10;49.10
28548;DHT22;68292;49.600;8.746;2023-06-26T04:53:23;25.10;49.20
28548;DHT22;68292;49.600;8.746;2023-06-26T04:55:53;25.10;49.20
28548;DHT22;68292;49.600;8.746;2023-06-26T04:58:21;25.10;49.40
28548;DHT22;68292;49.600;8.746;2023-06-26T05:00:49;25.10;49.40
28548;DHT22;68292;49.600;8.746;2023-06-26T05:03:17;25.20;49.50
28548;DHT22;68292;49.600;8.746;2023-06-26T05:05:46;25.10;49.50
28548;DHT22;68292;49.600;8.746;2023-06-26T05:08:15;25.20;49.60
28548;DHT22;68292;49.600;8.746;2023-06-26T05:10:45;25.20;49.70
28548;DHT22;68292;49.600;8.746;2023-06-26T05:13:14;25.20;49.80
28548;DHT22;68292;49.600;8.746;2023-06-26T05:15:45;25.20;49.60
28548;DHT22;68292;49.600;8.746;2023-06-26T05:18:13;25.20;49.70
28548;DHT22;68292;49.600;8.746;2023-06-26T05:20:42;25.20;49.70
28548;DHT22;68292;49.600;8.746;2023-06-26T05:23:11;25.20;49.80
28548;DHT22;68292;49.600;8.746;2023-06-26T05:25:40;25.20;49.90
28548;DHT22;68292;49.600;8.746;2023-06-26T05:28:09;25.20;50.00
28548;DHT22;68292;49.600;8.746;2023-06-26T05:30:40;25.20;50.10
28548;DHT22;68292;49.600;8.746;2023-06-26T05:33:11;25.30;50.20
28548;DHT22;68292;49.600;8.746;2023-06-26T05:35:41;25.30;50.20
28548;DHT22;68292;49.600;8.746;2023-06-26T05:38:11;25.30;50.10
28548;DHT22;68292;49.600;8.746;2023-06-26T05:40:41;25.40;50.10
28548;DHT22;68292;49.600;8.746;2023-06-26T05:43:10;25.30;50.00
28548;DHT22;68292;49.600;8.746;2023-06-26T05:45:40;25.40;50.00
28548;DHT22;68292;49.600;8.746;2023-06-26T05:48:08;25.40;50.20
28548;DHT22;68292;49.600;8.746;2023-06-26T05:50:37;25.40;50.30
28548;DHT22;68292;49.600;8.746;2023-06-26T05:53:09;25.40;50.50
28548;DHT22;68292;49.600;8.746;2023-06-26T05:55:38;25.40;50.60
28548;DHT22;68292;49.600;8.746;2023-06-26T05:58:10;25.50;50.80
28548;DHT22;68292;49.600;8.746;2023-06-26T06:00:41;25.50;50.90
28548;DHT22;68292;49.600;8.746;2023-06-26T06:03:09;25.50;51.10
28548;DHT22;68292;49.600;8.746;2023-06-26T06:05:38;25.50;51.10
28548;DHT22;68292;49.600;8.746;2023-06-26T06:08:06;25.50;51.10
28548;DHT22;68292;49.600;8.746;2023-06-26T06:10:34;25.60;51.20
28548;DHT22;68292;49.600;8.746;2023-06-26T06:13:03;25.60;51.30
28548;DHT22;68292;49.600;8.746;2023-06-26T06:15:31;25.60;51.20
28548;DHT22;68292;49.600;8.746;2023-06-26T06:18:00;25.60;51.10
28548;DHT22;68292;49.600;8.746;2023-06-26T06:20:29;25.70;51.20
28548;DHT22;68292;49.600;8.746;2023-06-26T06:22:57;25.70;51.10
28548;DHT22;68292;49.600;8.746;2023-06-26T06:25:25;25.70;51.30
28548;DHT22;68292;49.600;8.746;2023-06-26T06:27:53;25.70;51.40
28548;DHT22;68292;49.600;8.746;2023-06-26T06:30:21;25.80;51.50
28548;DHT22;68292;49.600;8.746;2023-06-26T06:33:11;25.80;51.50
28548;DHT22;68292;49.600;8.746;2023-06-26T06:35:39;25.80;51.50
28548;DHT22;68292;49.600;8.746;2023-06-26T06:38:07;25.90;51.60
28548;DHT22;68292;49.600;8.746;2023-06-26T06:40:35;25.90;51.60
28548;DHT22;68292;49.600;8.746;2023-06-26T06:43:04;25.90;51.50
28548;DHT22;68292;49.600;8.746;2023-06-26T06:45:32;26.00;51.60
28548;DHT22;68292;49.600;8.746;2023-06-26T06:48:00;26.00;51.50
28548;DHT22;68292;49.600;8.746;2023-06-26T06:50:29;26.00;51.50
28548;DHT22;68292;49.600;8.746;2023-06-26T06:52:57;26.00;51.60
28548;DHT22;68292;49.600;8.746;2023-06-26T06:55:25;26.00;51.50
28548;DHT22;68292;49.600;8.746;2023-06-26T06:57:53;26.10;51.50
28548;DHT22;68292;49.600;8.746;2023-06-26T07:00:21;26.10;51.50
28548;DHT22;68292;49.600;8.746;2023-06-26T07:02:50;26.20;51.60
28548;DHT22;68292;49.600;8.746;2023-06-26T07:05:18;26.20;51.50
28548;DHT22;68292;49.600;8.746;2023-06-26T07:07:47;26.20;51.50
28548;DHT22;68292;49.600;8.746;2023-06-26T07:10:15;26.30;51.60
28548;DHT22;68292;49.600;8.746;2023-06-26T07:12:43;26.30;51.50
28548;DHT22;68292;49.600;8.746;2023-06-26T07:15:12;26.30;51.40
28548;DHT22;68292;49.600;8.746;2023-06-26T07:17:40;26.30;51.40
28548;DHT22;68292;49.600;8.746;2023-06-26T07:20:09;26.30;51.10
28548;DHT22;68292;49.600;8.746;2023-06-26T07:22:42;26.40;51.30
28548;DHT22;68292;49.600;8.746;2023-06-26T07:25:14;26.40;51.20
28548;DHT22;68292;49.600;8.746;2023-06-26T07:27:42;26.40;51.30
28548;DHT22;68292;49.600;8.746;2023-06-26T07:30:12;26.40;51.20
28548;DHT22;68292;49.600;8.746;2023-06-26T07:32:40;26.50;51.00
28548;DHT22;68292;49.600;8.746;2023-06-26T07:35:09;26.50;50.90
28548;DHT22;68292;49.600;8.746;2023-06-26T07:37:37;26.50;51.10
28548;DHT22;68292;49.600;8.746;2023-06-26T07:40:06;26.60;51.10
28548;DHT22;68292;49.600;8.746;2023-06-26T07:42:36;26.60;51.00
28548;DHT22;68292;49.600;8.746;2023-06-26T07:45:05;26.60;51.00
28548;DHT22;68292;49.600;8.746;2023-06-26T07:47:37;26.60;50.90
28548;DHT22;68292;49.600;8.746;2023-06-26T07:50:06;26.70;50.80
28548;DHT22;68292;49.600;8.746;2023-06-26T07:52:34;26.60;50.70
28548;DHT22;68292;49.600;8.746;2023-06-26T07:55:03;26.70;50.80
28548;DHT22;68292;49.600;8.746;2023-06-26T07:57:32;26.70;50.70
28548;DHT22;68292;49.600;8.746;2023-06-26T08:00:01;26.70;50.70
28548;DHT22;68292;49.600;8.746;2023-06-26T08:02:40;26.80;50.50
28548;DHT22;68292;49.600;8.746;2023-06-26T08:05:08;26.80;50.50
28548;DHT22;68292;49.600;8.746;2023-06-26T08:07:36;26.80;50.60
28548;DHT22;68292;49.600;8.746;2023-06-26T08:10:05;26.80;50.60
28548;DHT22;68292;49.600;8.746;2023-06-26T08:12:33;26.80;50.60
28548;DHT22;68292;49.600;8.746;2023-06-26T08:15:05;26.80;50.50
28548;DHT22;68292;49.600;8.746;2023-06-26T08:17:34;26.80;50.50
28548;DHT22;68292;49.600;8.746;2023-06-26T08:20:03;26.90;50.60
28548;DHT22;68292;49.600;8.746;2023-06-26T08:22:34;26.90;50.40
28548;DHT22;68292;49.600;8.746;2023-06-26T08:25:03;26.90;50.60
28548;DHT22;68292;49.600;8.746;2023-06-26T08:27:33;26.90;50.60
28548;DHT22;68292;49.600;8.746;2023-06-26T08:30:01;26.90;50.50
28548;DHT22;68292;49.600;8.746;2023-06-26T08:32:31;27.00;50.70
28548;DHT22;68292;49.600;8.746;2023-06-26T08:34:59;27.00;50.70
28548;DHT22;68292;49.600;8.746;2023-06-26T08:37:27;27.00;50.50
28548;DHT22;68292;49.600;8.746;2023-06-26T08:39:55;27.00;50.60
28548;DHT22;68292;49.600;8.746;2023-06-26T08:42:23;27.00;50.50
28548;DHT22;68292;49.600;8.746;2023-06-26T08:44:52;27.00;50.70
28548;DHT22;68292;49.600;8.746;2023-06-26T08:47:28;27.10;50.70
28548;DHT22;68292;49.600;8.746;2023-06-26T08:50:04;27.10;50.70
28548;DHT22;68292;49.600;8.746;2023-06-26T08:52:36;27.10;51.00
28548;DHT22;68292;49.600;8.746;2023-06-26T08:55:10;27.20;51.10
28548;DHT22;68292;49.600;8.746;2023-06-26T08:57:39;27.20;50.90
28548;DHT22;68292;49.600;8.746;2023-06-26T09:00:08;27.20;50.80
28548;DHT22;68292;49.600;8.746;2023-06-26T09:02:39;27.20;50.90
28548;DHT22;68292;49.600;8.746;2023-06-26T09:05:12;27.20;50.70
28548;DHT22;68292;49.600;8.746;2023-06-26T09:07:40;27.20;50.90
28548;DHT22;68292;49.600;8.746;2023-06-26T09:10:09;27.20;50.80
28548;DHT22;68292;49.600;8.746;2023-06-26T09:12:37;27.20;50.70
28548;DHT22;68292;49.600;8.746;2023-06-26T09:15:06;27.20;50.90
28548;DHT22;68292;49.600;8.746;2023-06-26T09:17:40;27.30;51.10
28548;DHT22;68292;49.600;8.746;2023-06-26T09:20:09;27.30;51.00
28548;DHT22;68292;49.600;8.746;2023-06-26T09:22:43;27.30;51.30
28548;DHT22;68292;49.600;8.746;2023-06-26T09:25:11;27.30;51.40
28548;DHT22;68292;49.600;8.746;2023-06-26T09:27:40;27.30;51.10
28548;DHT22;68292;49.600;8.746;2023-06-26T09:30:11;27.30;51.40
28548;DHT22;68292;49.600;8.746;2023-06-26T09:32:41;27.40;51.50
28548;DHT22;68292;49.600;8.746;2023-06-26T09:35:10;27.40;51.50
28548;DHT22;68292;49.600;8.746;2023-06-26T09:37:39;27.40;51.50
28548;DHT22;68292;49.600;8.746;2023-06-26T09:40:08;27.40;51.40
28548;DHT22;68292;49.600;8.746;2023-06-26T09:42:37;27.40;51.40
28548;DHT22;68292;49.600;8.746;2023-06-26T09:45:06;27.40;51.40
28548;DHT22;68292;49.600;8.746;2023-06-26T09:47:34;27.50;51.40
28548;DHT22;68292;49.600;8.746;2023-06-26T09:50:04;27.50;51.50
28548;DHT22;68292;49.600;8.746;2023-06-26T09:52:35;27.50;51.40
28548;DHT22;68292;49.600;8.746;2023-06-26T09:55:08;27.50;51.30
28548;DHT22;68292;49.600;8.746;2023-06-26T09:57:39;27.50;51.20
28548;DHT22;68292;49.600;8.746;2023-06-26T10:00:09;27.60;51.50
28548;DHT22;68292;49.600;8.746;2023-06-26T10:02:39;27.60;51.00
28548;DHT22;68292;49.600;8.746;2023-06-26T10:05:10;27.60;50.70
28548;DHT22;68292;49.600;8.746;2023-06-26T10:07:39;27.60;50.70
28548;DHT22;68292;49.600;8.746;2023-06-26T10:10:08;27.60;50.60
28548;DHT22;68292;49.600;8.746;2023-06-26T10:12:38;27.60;50.50
28548;DHT22;68292;49.600;8.746;2023-06-26T10:15:06;27.70;50.60
28548;DHT22;68292;49.600;8.746;2023-06-26T10:17:42;27.70;50.80
28548;DHT22;68292;49.600;8.746;2023-06-26T10:20:13;27.70;51.10
28548;DHT22;68292;49.600;8.746;2023-06-26T10:22:44;27.80;50.90
28548;DHT22;68292;49.600;8.746;2023-06-26T10:25:17;27.80;50.80
28548;DHT22;68292;49.600;8.746;2023-06-26T10:27:49;27.80;51.60
28548;DHT22;68292;49.600;8.746;2023-06-26T10:30:22;27.90;51.00
28548;DHT22;68292;49.600;8.746;2023-06-26T10:32:53;27.90;50.80
28548;DHT22;68292;49.600;8.746;2023-06-26T10:35:23;28.00;50.80
28548;DHT22;68292;49.600;8.746;2023-06-26T10:37:52;28.00;50.50
28548;DHT22;68292;49.600;8.746;2023-06-26T10:40:40;28.00;50.40
28548;DHT22;68292;49.600;8.746;2023-06-26T10:43:10;28.00;50.20
28548;DHT22;68292;49.600;8.746;2023-06-26T10:45:43;28.00;50.10
28548;DHT22;68292;49.600;8.746;2023-06-26T10:48:14;28.10;50.30
28548;DHT22;68292;49.600;8.746;2023-06-26T10:50:47;28.10;50.30
28548;DHT22;68292;49.600;8.746;2023-06-26T10:53:22;28.10;50.20
28548;DHT22;68292;49.600;8.746;2023-06-26T10:55:58;28.10;50.30
28548;DHT22;68292;49.600;8.746;2023-06-26T10:58:33;28.10;50.30
28548;DHT22;68292;49.600;8.746;2023-06-26T11:01:18;28.10;50.40
28548;DHT22;68292;49.600;8.746;2023-06-26T11:03:49;28.10;50.30
28548;DHT22;68292;49.600;8.746;2023-06-26T11:06:32;28.10;50.60
28548;DHT22;68292;49.600;8.746;2023-06-26T11:09:06;28.10;50.50
28548;DHT22;68292;49.600;8.746;2023-06-26T11:11:57;28.10;50.50
28548;DHT22;68292;49.600;8.746;2023-06-26T11:14:30;28.10;50.80
28548;DHT22;68292;49.600;8.746;2023-06-26T11:17:01;28.10;50.50
28548;DHT22;68292;49.600;8.746;2023-06-26T11:19:32;28.10;50.60
28548;DHT22;68292;49.600;8.746;2023-06-26T11:22:05;28.10;50.60
28548;DHT22;68292;49.600;8.746;2023-06-26T11:24:33;28.10;50.70
28548;DHT22;68292;49.600;8.746;2023-06-26T11:27:04;28.10;50.50
28548;DHT22;68292;49.600;8.746;2023-06-26T11:29:33;28.10;50.70
28548;DHT22;68292;49.600;8.746;2023-06-26T11:32:03;28.10;50.70
28548;DHT22;68292;49.600;8.746;2023-06-26T11:34:35;28.10;50.70
28548;DHT22;68292;49.600;8.746;2023-06-26T11:37:07;28.10;50.70
28548;DHT22;68292;49.600;8.746;2023-06-26T11:39:35;28.10;50.70
28548;DHT22;68292;49.600;8.746;2023-06-26T11:42:04;28.10;50.70
28548;DHT22;68292;49.600;8.746;2023-06-26T11:44:39;28.20;50.60
28548;DHT22;68292;49.600;8.746;2023-06-26T11:47:12;28.10;50.50
28548;DHT22;68292;49.600;8.746;2023-06-26T11:49:45;28.10;50.50
28548;DHT22;68292;49.600;8.746;2023-06-26T11:52:16;28.10;50.50
28548;DHT22;68292;49.600;8.746;2023-06-26T11:54:45;28.10;50.40
28548;DHT22;68292;49.600;8.746;2023-06-26T11:57:14;28.10;50.40
28548;DHT22;68292;49.600;8.746;2023-06-26T11:59:44;28.10;50.50
28548;DHT22;68292;49.600;8.746;2023-06-26T12:02:13;28.10;50.70
28548;DHT22;68292;49.600;8.746;2023-06-26T12:04:44;28.10;50.70
28548;DHT22;68292;49.600;8.746;2023-06-26T12:07:14;28.10;50.80
28548;DHT22;68292;49.600;8.746;2023-06-26T12:09:43;28.10;50.90
28548;DHT22;68292;49.600;8.746;2023-06-26T12:12:16;28.10;51.30
28548;DHT22;68292;49.600;8.746;2023-06-26T12:14:45;28.10;51.20
28548;DHT22;68292;49.600;8.746;2023-06-26T12:17:14;28.10;51.40
28548;DHT22;68292;49.600;8.746;2023-06-26T12:19:44;28.10;51.40
28548;DHT22;68292;49.600;8.746;2023-06-26T12:22:16;28.10;51.40
28548;DHT22;68292;49.600;8.746;2023-06-26T12:24:45;28.10;51.30
28548;DHT22;68292;49.600;8.746;2023-06-26T12:27:17;28.10;51.30
28548;DHT22;68292;49.600;8.746;2023-06-26T12:29:50;28.10;51.30
28548;DHT22;68292;49.600;8.746;2023-06-26T12:32:19;28.10;51.50
28548;DHT22;68292;49.600;8.746;2023-06-26T12:34:49;28.10;51.30
28548;DHT22;68292;49.600;8.746;2023-06-26T12:37:19;28.10;51.10
28548;DHT22;68292;49.600;8.746;2023-06-26T12:39:48;28.10;51.10
28548;DHT22;68292;49.600;8.746;2023-06-26T12:42:18;28.10;50.90
28548;DHT22;68292;49.600;8.746;2023-06-26T12:44:48;28.10;50.50
28548;DHT22;68292;49.600;8.746;2023-06-26T12:47:17;28.20;50.50
28548;DHT22;68292;49.600;8.746;2023-06-26T12:49:51;28.20;50.20
28548;DHT22;68292;49.600;8.746;2023-06-26T12:52:21;28.20;50.30
28548;DHT22;68292;49.600;8.746;2023-06-26T12:54:52;28.20;50.80
28548;DHT22;68292;49.600;8.746;2023-06-26T12:57:22;28.20;50.00
28548;DHT22;68292;49.600;8.746;2023-06-26T12:59:50;28.20;50.20
28548;DHT22;68292;49.600;8.746;2023-06-26T13:02:18;28.30;49.70
28548;DHT22;68292;49.600;8.746;2023-06-26T13:04:47;28.30;49.50
28548;DHT22;68292;49.600;8.746;2023-06-26T13:07:15;28.30;49.70
28548;DHT22;68292;49.600;8.746;2023-06-26T13:09:45;28.30;49.70
28548;DHT22;68292;49.600;8.746;2023-06-26T13:12:15;28.30;49.50
28548;DHT22;68292;49.600;8.746;2023-06-26T13:14:43;28.30;49.30
28548;DHT22;68292;49.600;8.746;2023-06-26T13:17:11;28.40;49.20
28548;DHT22;68292;49.600;8.746;2023-06-26T13:19:39;28.40;49.00
28548;DHT22;68292;49.600;8.746;2023-06-26T13:22:07;28.40;48.80
28548;DHT22;68292;49.600;8.746;2023-06-26T13:24:35;28.40;48.90
28548;DHT22;68292;49.600;8.746;2023-06-26T13:27:05;28.40;48.80
28548;DHT22;68292;49.600;8.746;2023-06-26T13:29:34;28.40;48.60
28548;DHT22;68292;49.600;8.746;2023-06-26T13:32:02;28.40;48.50
28548;DHT22;68292;49.600;8.746;2023-06-26T13:34:30;28.40;48.30
28548;DHT22;68292;49.600;8.746;2023-06-26T13:36:58;28.50;48.00
28548;DHT22;68292;49.600;8.746;2023-06-26T13:39:27;28.50;47.90
28548;DHT22;68292;49.600;8.746;2023-06-26T13:41:55;28.50;47.80
28548;DHT22;68292;49.600;8.746;2023-06-26T13:44:25;28.50;47.50
28548;DHT22;68292;49.600;8.746;2023-06-26T13:47:07;28.50;47.10
28548;DHT22;68292;49.600;8.746;2023-06-26T13:49:36;28.50;47.40
28548;DHT22;68292;49.600;8.746;2023-06-26T13:52:05;28.50;47.10
28548;DHT22;68292;49.600;8.746;2023-06-26T13:54:34;28.50;46.90
28548;DHT22;68292;49.600;8.746;2023-06-26T13:57:04;28.50;46.70
28548;DHT22;68292;49.600;8.746;2023-06-26T13:59:33;28.50;46.50
28548;DHT22;68292;49.600;8.746;2023-06-26T14:02:06;28.50;46.20
28548;DHT22;68292;49.600;8.746;2023-06-26T14:04:35;28.50;46.40
28548;DHT22;68292;49.600;8.746;2023-06-26T14:07:04;28.50;46.20
28548;DHT22;68292;49.600;8.746;2023-06-26T14:09:34;28.50;45.90
28548;DHT22;68292;49.600;8.746;2023-06-26T14:12:02;28.50;46.10
28548;DHT22;68292;49.600;8.746;2023-06-26T14:14:30;28.50;46.10
28548;DHT22;68292;49.600;8.746;2023-06-26T14:16:59;28.50;45.80
28548;DHT22;68292;49.600;8.746;2023-06-26T14:19:29;28.50;45.70
28548;DHT22;68292;49.600;8.746;2023-06-26T14:21:57;28.50;45.80
28548;DHT22;68292;49.600;8.746;2023-06-26T14:24:26;28.50;45.30
28548;DHT22;68292;49.600;8.746;2023-06-26T14:26:54;28.50;45.50
28548;DHT22;68292;49.600;8.746;2023-06-26T14:29:22;28.50;45.20
28548;DHT22;68292;49.600;8.746;2023-06-26T14:31:50;28.50;44.90
28548;DHT22;68292;49.600;8.746;2023-06-26T14:34:23;28.50;44.80
28548;DHT22;68292;49.600;8.746;2023-06-26T14:36:51;28.50;44.60
28548;DHT22;68292;49.600;8.746;2023-06-26T14:39:19;28.50;44.40
28548;DHT22;68292;49.600;8.746;2023-06-26T14:41:48;28.50;44.30
28548;DHT22;68292;49.600;8.746;2023-06-26T14:44:17;28.50;44.30
28548;DHT22;68292;49.600;8.746;2023-06-26T14:46:46;28.50;44.40
28548;DHT22;68292;49.600;8.746;2023-06-26T14:49:14;28.50;44.30
28548;DHT22;68292;49.600;8.746;2023-06-26T14:51:44;28.50;44.20
28548;DHT22;68292;49.600;8.746;2023-06-26T14:54:12;28.50;44.30
28548;DHT22;68292;49.600;8.746;2023-06-26T14:56:40;28.50;44.50
28548;DHT22;68292;49.600;8.746;2023-06-26T14:59:10;28.50;44.60
28548;DHT22;68292;49.600;8.746;2023-06-26T15:01:39;28.50;44.30
28548;DHT22;68292;49.600;8.746;2023-06-26T15:04:07;28.50;44.10
28548;DHT22;68292;49.600;8.746;2023-06-26T15:06:37;28.50;44.10
28548;DHT22;68292;49.600;8.746;2023-06-26T15:09:07;28.50;44.00
28548;DHT22;68292;49.600;8.746;2023-06-26T15:11:36;28.50;43.80
28548;DHT22;68292;49.600;8.746;2023-06-26T15:14:04;28.50;43.90
28548;DHT22;68292;49.600;8.746;2023-06-26T15:16:32;28.50;44.00
28548;DHT22;68292;49.600;8.746;2023-06-26T15:19:00;28.50;43.60
28548;DHT22;68292;49.600;8.746;2023-06-26T15:21:28;28.50;43.60
28548;DHT22;68292;49.600;8.746;2023-06-26T15:23:57;28.50;43.40
28548;DHT22;68292;49.600;8.746;2023-06-26T15:26:26;28.50;43.10
28548;DHT22;68292;49.600;8.746;2023-06-26T15:28:54;28.50;43.10
28548;DHT22;68292;49.600;8.746;2023-06-26T15:31:23;28.40;43.20
28548;DHT22;68292;49.600;8.746;2023-06-26T15:33:51;28.40;43.30
28548;DHT22;68292;49.600;8.746;2023-06-26T15:36:19;28.40;43.20
28548;DHT22;68292;49.600;8.746;2023-06-26T15:38:47;28.40;43.10
28548;DHT22;68292;49.600;8.746;2023-06-26T15:41:15;28.40;43.00
28548;DHT22;68292;49.600;8.746;2023-06-26T15:43:44;28.40;42.90
28548;DHT22;68292;49.600;8.746;2023-06-26T15:46:13;28.40;42.80